sensor_id;sensor_type;location;lat;lon;timestamp;pressure;altitude;pressure_sealevel;temperature;humidity
13734;BME280;43298;52.560;13.508;2023-08-17T00:01:51;101310.84;;;20.02;100.00
13734;BME280;43298;52.560;13.508;2023-08-17T00:04:17;101314.88;;;19.95;100.00
13734;BME280;43298;52.560;13.508;2023-08-17T00:06:43;101317.59;;;19.94;100.00
13734;BME280;43298;52.560;13.508;2023-08-17T00:09:09;101309.59;;;19.95;100.00
13734;BME280;43298;52.560;13.508;2023-08-17T00:11:38;101301.44;;;19.87;100.00
13734;BME280;43298;52.560;13.508;2023-08-17T00:14:05;101294.50;;;19.86;100.00
13734;BME280;43298;52.560;13.508;2023-08-17T00:16:31;101297.22;;;19.85;100.00
13734;BME280;43298;52.560;13.508;2023-08-17T00:18:57;101283.38;;;19.83;100.00
13734;BME280;43298;52.560;13.508;2023-08-17T00:21:23;101287.59;;;19.73;100.00
13734;BME280;43298;52.560;13.508;2023-08-17T00:23:49;101271.22;;;19.69;100.00
13734;BME280;43298;52.560;13.508;2023-08-17T00:26:15;101267.03;;;19.67;100.00
13734;BME280;43298;52.560;13.508;2023-08-17T00:28:40;101263.69;;;19.65;100.00
13734;BME280;43298;52.560;13.508;2023-08-17T00:31:06;101260.22;;;19.64;100.00
13734;BME280;43298;52.560;13.508;2023-08-17T00:33:32;101253.03;;;19.55;100.00
13734;BME280;43298;52.560;13.508;2023-08-17T00:35:58;101233.91;;;19.53;100.00
13734;BME280;43298;52.560;13.508;2023-08-17T00:38:24;101226.47;;;19.47;100.00
13734;BME280;43298;52.560;13.508;2023-08-17T00:40:50;101232.16;;;19.41;100.00
13734;BME280;43298;52.560;13.508;2023-08-17T00:43:16;101235.50;;;19.43;100.00
13734;BME280;43298;52.560;13.508;2023-08-17T00:45:42;101242.66;;;19.41;100.00
13734;BME280;43298;52.560;13.508;2023-08-17T00:48:10;101246.41;;;19.37;100.00
13734;BME280;43298;52.560;13.508;2023-08-17T00:50:37;101253.03;;;19.30;100.00
13734;BME280;43298;52.560;13.508;2023-08-17T00:53:03;101251.34;;;19.29;100.00
13734;BME280;43298;52.560;13.508;2023-08-17T00:55:30;101251.78;;;19.23;100.00
13734;BME280;43298;52.560;13.508;2023-08-17T00:57:56;101257.00;;;19.23;100.00
13734;BME280;43298;52.560;13.508;2023-08-17T01:00:24;101260.88;;;19.18;100.00
13734;BME280;43298;52.560;13.508;2023-08-17T01:02:53;101259.19;;;19.17;100.00
13734;BME280;43298;52.560;13.508;2023-08-17T01:05:20;101261.81;;;19.17;100.00
13734;BME280;43298;52.560;13.508;2023-08-17T01:07:47;101256.47;;;19.18;100.00
13734;BME280;43298;52.560;13.508;2023-08-17T01:10:13;101255.53;;;19.19;100.00
13734;BME280;43298;52.560;13.508;2023-08-17T01:13:07;101254.41;;;19.23;100.00
13734;BME280;43298;52.560;13.508;2023-08-17T01:15:42;101246.09;;;19.29;100.00
13734;BME280;43298;52.560;13.508;2023-08-17T01:20:49;101251.88;;;19.22;100.00
13734;BME280;43298;52.560;13.508;2023-08-17T01:23:15;101258.16;;;19.19;100.00
13734;BME280;43298;52.560;13.508;2023-08-17T01:25:41;101255.75;;;19.16;100.00
13734;BME280;43298;52.560;13.508;2023-08-17T01:28:07;101244.41;;;19.16;100.00
13734;BME280;43298;52.560;13.508;2023-08-17T01:31:11;101242.31;;;19.08;100.00
13734;BME280;43298;52.560;13.508;2023-08-17T01:33:52;101239.47;;;19.11;100.00
13734;BME280;43298;52.560;13.508;2023-08-17T01:36:25;101235.59;;;19.04;100.00
13734;BME280;43298;52.560;13.508;2023-08-17T01:38:52;101238.31;;;19.03;100.00
13734;BME280;43298;52.560;13.508;2023-08-17T01:41:23;101241.59;;;19.06;100.00
13734;BME280;43298;52.560;13.508;2023-08-17T01:43:50;101240.84;;;19.04;100.00
13734;BME280;43298;52.560;13.508;2023-08-17T01:46:17;101244.53;;;19.02;100.00
13734;BME280;43298;52.560;13.508;2023-08-17T01:48:44;101249.47;;;19.06;100.00
13734;BME280;43298;52.560;13.508;2023-08-17T01:51:13;101248.41;;;19.09;100.00
13734;BME280;43298;52.560;13.508;2023-08-17T01:53:39;101250.19;;;19.08;100.00
13734;BME280;43298;52.560;13.508;2023-08-17T01:56:05;101244.22;;;19.06;100.00
13734;BME280;43298;52.560;13.508;2023-08-17T01:58:31;101252.78;;;19.08;100.00
13734;BME280;43298;52.560;13.508;2023-08-17T02:00:57;101252.78;;;19.08;100.00
13734;BME280;43298;52.560;13.508;2023-08-17T02:03:22;101251.88;;;19.09;100.00
13734;BME280;43298;52.560;13.508;2023-08-17T02:05:48;101259.94;;;19.06;100.00
13734;BME280;43298;52.560;13.508;2023-08-17T02:08:15;101265.28;;;19.05;100.00
13734;BME280;43298;52.560;13.508;2023-08-17T02:10:40;101262.47;;;18.95;100.00
13734;BME280;43298;52.560;13.508;2023-08-17T02:13:06;101257.94;;;18.97;100.00
13734;BME280;43298;52.560;13.508;2023-08-17T02:15:32;101254.25;;;19.00;100.00
13734;BME280;43298;52.560;13.508;2023-08-17T02:18:01;101258.69;;;18.99;100.00
13734;BME280;43298;52.560;13.508;2023-08-17T02:20:27;101253.44;;;18.99;100.00
13734;BME280;43298;52.560;13.508;2023-08-17T02:22:52;101254.25;;;19.00;100.00
13734;BME280;43298;52.560;13.508;2023-08-17T02:25:18;101254.38;;;18.98;100.00
13734;BME280;43298;52.560;13.508;2023-08-17T02:27:44;101249.88;;;19.00;100.00
13734;BME280;43298;52.560;13.508;2023-08-17T02:30:10;101247.34;;;18.99;100.00
13734;BME280;43298;52.560;13.508;2023-08-17T02:32:36;101258.47;;;19.02;100.00
13734;BME280;43298;52.560;13.508;2023-08-17T02:35:02;101251.53;;;19.01;100.00
13734;BME280;43298;52.560;13.508;2023-08-17T02:37:28;101264.34;;;18.93;100.00
13734;BME280;43298;52.560;13.508;2023-08-17T02:39:54;101262.66;;;18.92;100.00
13734;BME280;43298;52.560;13.508;2023-08-17T02:42:20;101265.28;;;18.92;100.00
13734;BME280;43298;52.560;13.508;2023-08-17T02:44:45;101260.66;;;18.96;100.00
13734;BME280;43298;52.560;13.508;2023-08-17T02:47:11;101256.69;;;18.90;100.00
13734;BME280;43298;52.560;13.508;2023-08-17T02:49:37;101249.66;;;18.91;100.00
13734;BME280;43298;52.560;13.508;2023-08-17T02:52:03;101236.56;;;18.91;100.00
13734;BME280;43298;52.560;13.508;2023-08-17T02:54:29;101237.72;;;18.87;100.00
13734;BME280;43298;52.560;13.508;2023-08-17T02:56:57;101235.19;;;18.85;100.00
13734;BME280;43298;52.560;13.508;2023-08-17T02:59:23;101231.09;;;18.81;100.00
13734;BME280;43298;52.560;13.508;2023-08-17T03:01:48;101226.06;;;18.78;100.00
13734;BME280;43298;52.560;13.508;2023-08-17T03:04:14;101230.91;;;18.84;100.00
13734;BME280;43298;52.560;13.508;2023-08-17T03:06:40;101232.78;;;18.82;100.00
13734;BME280;43298;52.560;13.508;2023-08-17T03:09:06;101227.13;;;18.88;100.00
13734;BME280;43298;52.560;13.508;2023-08-17T03:11:32;101231.63;;;18.86;100.00
13734;BME280;43298;52.560;13.508;2023-08-17T03:13:58;101229.00;;;18.86;100.00
13734;BME280;43298;52.560;13.508;2023-08-17T03:16:26;101225.66;;;18.84;100.00
13734;BME280;43298;52.560;13.508;2023-08-17T03:18:52;101241.59;;;18.81;100.00
13734;BME280;43298;52.560;13.508;2023-08-17T03:21:18;101236.44;;;18.80;100.00
13734;BME280;43298;52.560;13.508;2023-08-17T03:23:45;101241.03;;;18.76;100.00
13734;BME280;43298;52.560;13.508;2023-08-17T03:26:11;101233.50;;;18.72;100.00
13734;BME280;43298;52.560;13.508;2023-08-17T03:28:37;101233.81;;;18.67;100.00
13734;BME280;43298;52.560;13.508;2023-08-17T03:31:03;101227.81;;;18.53;100.00
13734;BME280;43298;52.560;13.508;2023-08-17T03:33:29;101232.22;;;18.52;100.00
13734;BME280;43298;52.560;13.508;2023-08-17T03:35:55;101232.63;;;18.46;100.00
13734;BME280;43298;52.560;13.508;2023-08-17T03:38:20;101235.88;;;18.50;100.00
13734;BME280;43298;52.560;13.508;2023-08-17T03:40:49;101238.47;;;18.50;100.00
13734;BME280;43298;52.560;13.508;2023-08-17T03:43:15;101227.59;;;18.43;100.00
13734;BME280;43298;52.560;13.508;2023-08-17T03:45:42;101241.00;;;18.51;100.00
13734;BME280;43298;52.560;13.508;2023-08-17T03:48:08;101239.66;;;18.58;100.00
13734;BME280;43298;52.560;13.508;2023-08-17T03:50:34;101234.94;;;18.51;100.00
13734;BME280;43298;52.560;13.508;2023-08-17T03:53:00;101237.75;;;18.48;100.00
13734;BME280;43298;52.560;13.508;2023-08-17T03:55:26;101237.66;;;18.49;100.00
13734;BME280;43298;52.560;13.508;2023-08-17T03:57:52;101238.28;;;18.53;100.00
13734;BME280;43298;52.560;13.508;2023-08-17T04:00:18;101241.28;;;18.47;100.00
13734;BME280;43298;52.560;13.508;2023-08-17T04:02:44;101238.56;;;18.48;100.00
13734;BME280;43298;52.560;13.508;2023-08-17T04:05:10;101239.94;;;18.54;100.00
13734;BME280;43298;52.560;13.508;2023-08-17T04:07:36;101232.41;;;18.49;100.00
13734;BME280;43298;52.560;13.508;2023-08-17T04:10:05;101237.88;;;18.59;100.00
13734;BME280;43298;52.560;13.508;2023-08-17T04:12:31;101231.78;;;18.58;100.00
13734;BME280;43298;52.560;13.508;2023-08-17T04:14:57;101236.22;;;18.58;100.00
13734;BME280;43298;52.560;13.508;2023-08-17T04:17:22;101232.75;;;18.57;100.00
13734;BME280;43298;52.560;13.508;2023-08-17T04:19:48;101230.75;;;18.61;100.00
13734;BME280;43298;52.560;13.508;2023-08-17T04:22:14;101234.22;;;18.61;100.00
13734;BME280;43298;52.560;13.508;2023-08-17T04:24:40;101229.38;;;18.68;100.00
13734;BME280;43298;52.560;13.508;2023-08-17T04:27:06;101234.72;;;18.66;100.00
13734;BME280;43298;52.560;13.508;2023-08-17T04:29:32;101230.75;;;18.73;100.00
13734;BME280;43298;52.560;13.508;2023-08-17T04:31:58;101229.09;;;18.72;100.00
13734;BME280;43298;52.560;13.508;2023-08-17T04:34:24;101232.03;;;18.80;100.00
13734;BME280;43298;52.560;13.508;2023-08-17T04:36:50;101229.09;;;18.85;100.00
13734;BME280;43298;52.560;13.508;2023-08-17T04:39:16;101227.84;;;18.90;100.00
13734;BME280;43298;52.560;13.508;2023-08-17T04:41:43;101231.72;;;18.97;100.00
13734;BME280;43298;52.560;13.508;2023-08-17T04:44:09;101228.91;;;19.00;100.00
13734;BME280;43298;52.560;13.508;2023-08-17T04:46:35;101234.13;;;19.00;100.00
13734;BME280;43298;52.560;13.508;2023-08-17T04:49:01;101232.28;;;19.02;100.00
13734;BME280;43298;52.560;13.508;2023-08-17T04:51:27;101234.34;;;19.10;100.00
13734;BME280;43298;52.560;13.508;2023-08-17T04:53:53;101239.59;;;19.10;100.00
13734;BME280;43298;52.560;13.508;2023-08-17T04:56:19;101249.91;;;19.25;100.00
13734;BME280;43298;52.560;13.508;2023-08-17T04:58:45;101253.66;;;19.21;100.00
13734;BME280;43298;52.560;13.508;2023-08-17T05:01:11;101252.59;;;19.24;100.00
13734;BME280;43298;52.560;13.508;2023-08-17T05:03:36;101248.03;;;19.27;100.00
13734;BME280;43298;52.560;13.508;2023-08-17T05:06:02;101244.94;;;19.33;100.00
13734;BME280;43298;52.560;13.508;2023-08-17T05:08:29;101246.97;;;19.30;100.00
13734;BME280;43298;52.560;13.508;2023-08-17T05:10:55;101251.78;;;19.48;100.00
13734;BME280;43298;52.560;13.508;2023-08-17T05:13:21;101254.69;;;19.56;100.00
13734;BME280;43298;52.560;13.508;2023-08-17T05:15:46;101261.19;;;19.63;100.00
13734;BME280;43298;52.560;13.508;2023-08-17T05:18:12;101264.72;;;19.62;100.00
13734;BME280;43298;52.560;13.508;2023-08-17T05:20:38;101266.63;;;19.73;100.00
13734;BME280;43298;52.560;13.508;2023-08-17T05:23:04;101262.06;;;19.87;100.00
13734;BME280;43298;52.560;13.508;2023-08-17T05:25:30;101266.16;;;19.91;100.00
13734;BME280;43298;52.560;13.508;2023-08-17T05:27:56;101261.44;;;20.07;100.00
13734;BME280;43298;52.560;13.508;2023-08-17T05:30:22;101261.66;;;20.17;100.00
13734;BME280;43298;52.560;13.508;2023-08-17T05:32:47;101257.63;;;20.24;100.00
13734;BME280;43298;52.560;13.508;2023-08-17T05:35:13;101266.88;;;20.40;100.00
13734;BME280;43298;52.560;13.508;2023-08-17T05:37:39;101272.66;;;20.45;100.00
13734;BME280;43298;52.560;13.508;2023-08-17T05:40:06;101265.97;;;20.41;100.00
13734;BME280;43298;52.560;13.508;2023-08-17T05:42:32;101269.69;;;20.50;100.00
13734;BME280;43298;52.560;13.508;2023-08-17T05:44:57;101268.38;;;20.44;100.00
13734;BME280;43298;52.560;13.508;2023-08-17T05:47:23;101263.78;;;20.70;100.00
13734;BME280;43298;52.560;13.508;2023-08-17T05:49:49;101266.06;;;20.75;100.00
13734;BME280;43298;52.560;13.508;2023-08-17T05:52:15;101258.53;;;20.81;100.00
13734;BME280;43298;52.560;13.508;2023-08-17T05:54:40;101260.84;;;20.86;100.00
13734;BME280;43298;52.560;13.508;2023-08-17T05:57:07;101273.91;;;20.98;100.00
13734;BME280;43298;52.560;13.508;2023-08-17T05:59:33;101266.38;;;21.05;100.00
13734;BME280;43298;52.560;13.508;2023-08-17T06:01:59;101280.28;;;21.07;100.00
13734;BME280;43298;52.560;13.508;2023-08-17T06:04:24;101288.03;;;20.97;100.00
13734;BME280;43298;52.560;13.508;2023-08-17T06:06:51;101298.47;;;21.10;100.00
13734;BME280;43298;52.560;13.508;2023-08-17T06:09:16;101302.25;;;20.95;100.00
13734;BME280;43298;52.560;13.508;2023-08-17T06:11:42;101323.19;;;20.96;100.00
13734;BME280;43298;52.560;13.508;2023-08-17T06:14:08;101343.84;;;21.01;100.00
13734;BME280;43298;52.560;13.508;2023-08-17T06:16:34;101371.00;;;21.01;100.00
13734;BME280;43298;52.560;13.508;2023-08-17T06:19:00;101390.06;;;21.16;100.00
13734;BME280;43298;52.560;13.508;2023-08-17T06:21:26;101399.88;;;21.25;100.00
13734;BME280;43298;52.560;13.508;2023-08-17T06:23:52;101411.72;;;21.19;100.00
13734;BME280;43298;52.560;13.508;2023-08-17T06:26:18;101424.50;;;21.13;100.00
13734;BME280;43298;52.560;13.508;2023-08-17T06:28:44;101423.75;;;21.11;100.00
13734;BME280;43298;52.560;13.508;2023-08-17T06:31:09;101414.91;;;21.12;100.00
13734;BME280;43298;52.560;13.508;2023-08-17T06:33:35;101409.28;;;21.05;100.00
13734;BME280;43298;52.560;13.508;2023-08-17T06:36:01;101406.97;;;21.01;100.00
13734;BME280;43298;52.560;13.508;2023-08-17T06:38:27;101398.38;;;21.44;100.00
13734;BME280;43298;52.560;13.508;2023-08-17T06:40:53;101406.00;;;21.82;100.00
13734;BME280;43298;52.560;13.508;2023-08-17T06:43:19;101412.00;;;21.84;100.00
13734;BME280;43298;52.560;13.508;2023-08-17T06:45:45;101423.34;;;22.06;100.00
13734;BME280;43298;52.560;13.508;2023-08-17T06:48:10;101433.28;;;22.36;100.00
13734;BME280;43298;52.560;13.508;2023-08-17T06:50:36;101440.94;;;22.61;100.00
13734;BME280;43298;52.560;13.508;2023-08-17T06:53:02;101434.66;;;22.84;100.00
13734;BME280;43298;52.560;13.508;2023-08-17T06:55:28;101433.41;;;22.99;100.00
13734;BME280;43298;52.560;13.508;2023-08-17T06:57:54;101426.78;;;23.04;100.00
13734;BME280;43298;52.560;13.508;2023-08-17T07:00:21;101432.44;;;23.00;100.00
13734;BME280;43298;52.560;13.508;2023-08-17T07:02:48;101426.00;;;23.24;100.00
13734;BME280;43298;52.560;13.508;2023-08-17T07:05:15;101426.59;;;23.17;100.00
13734;BME280;43298;52.560;13.508;2023-08-17T07:10:09;101425.84;;;22.63;100.00
13734;BME280;43298;52.560;13.508;2023-08-17T07:12:37;101429.88;;;22.78;100.00
13734;BME280;43298;52.560;13.508;2023-08-17T07:15:04;101432.69;;;22.32;100.00
13734;BME280;43298;52.560;13.508;2023-08-17T07:17:31;101422.50;;;22.50;100.00
13734;BME280;43298;52.560;13.508;2023-08-17T07:19:57;101427.91;;;22.48;100.00
13734;BME280;43298;52.560;13.508;2023-08-17T07:22:22;101432.44;;;22.57;100.00
13734;BME280;43298;52.560;13.508;2023-08-17T07:24:49;101425.88;;;22.52;100.00
13734;BME280;43298;52.560;13.508;2023-08-17T07:27:15;101423.94;;;22.54;100.00
13734;BME280;43298;52.560;13.508;2023-08-17T07:29:41;101429.00;;;22.88;100.00
13734;BME280;43298;52.560;13.508;2023-08-17T07:32:07;101444.97;;;22.87;100.00
13734;BME280;43298;52.560;13.508;2023-08-17T07:34:33;101443.78;;;22.80;100.00
13734;BME280;43298;52.560;13.508;2023-08-17T07:36:59;101448.97;;;23.02;100.00
13734;BME280;43298;52.560;13.508;2023-08-17T07:39:24;101445.13;;;22.63;100.00
13734;BME280;43298;52.560;13.508;2023-08-17T07:41:50;101445.25;;;23.04;100.00
13734;BME280;43298;52.560;13.508;2023-08-17T07:44:16;101438.56;;;23.32;100.00
13734;BME280;43298;52.560;13.508;2023-08-17T07:46:42;101435.97;;;23.42;100.00
13734;BME280;43298;52.560;13.508;2023-08-17T07:49:08;101433.94;;;23.45;100.00
13734;BME280;43298;52.560;13.508;2023-08-17T07:51:34;101430.50;;;23.33;100.00
13734;BME280;43298;52.560;13.508;2023-08-17T07:54:00;101427.63;;;23.37;100.00
13734;BME280;43298;52.560;13.508;2023-08-17T07:56:26;101431.53;;;23.42;100.00
13734;BME280;43298;52.560;13.508;2023-08-17T07:58:55;101430.38;;;23.35;100.00
13734;BME280;43298;52.560;13.508;2023-08-17T08:01:21;101425.94;;;23.36;100.00
13734;BME280;43298;52.560;13.508;2023-08-17T08:03:47;101420.97;;;23.42;100.00
13734;BME280;43298;52.560;13.508;2023-08-17T08:06:15;101432.81;;;23.48;100.00
13734;BME280;43298;52.560;13.508;2023-08-17T08:08:42;101427.53;;;23.27;100.00
13734;BME280;43298;52.560;13.508;2023-08-17T08:11:09;101424.00;;;23.06;100.00
13734;BME280;43298;52.560;13.508;2023-08-17T08:13:35;101427.06;;;23.22;100.00
13734;BME280;43298;52.560;13.508;2023-08-17T08:16:01;101416.28;;;23.25;100.00
13734;BME280;43298;52.560;13.508;2023-08-17T08:18:27;101425.50;;;23.51;100.00
13734;BME280;43298;52.560;13.508;2023-08-17T08:20:52;101422.34;;;23.37;100.00
13734;BME280;43298;52.560;13.508;2023-08-17T08:23:18;101411.78;;;23.05;100.00
13734;BME280;43298;52.560;13.508;2023-08-17T08:25:44;101409.56;;;23.62;100.00
13734;BME280;43298;52.560;13.508;2023-08-17T08:28:10;101420.03;;;23.94;100.00
13734;BME280;43298;52.560;13.508;2023-08-17T08:30:36;101415.34;;;23.97;100.00
13734;BME280;43298;52.560;13.508;2023-08-17T08:33:02;101411.25;;;24.14;100.00
13734;BME280;43298;52.560;13.508;2023-08-17T08:35:28;101395.41;;;23.93;100.00
13734;BME280;43298;52.560;13.508;2023-08-17T08:37:54;101400.41;;;24.17;100.00
13734;BME280;43298;52.560;13.508;2023-08-17T08:40:28;101390.59;;;23.98;100.00
13734;BME280;43298;52.560;13.508;2023-08-17T08:42:58;101393.22;;;23.98;100.00
13734;BME280;43298;52.560;13.508;2023-08-17T08:45:24;101394.38;;;24.05;100.00
13734;BME280;43298;52.560;13.508;2023-08-17T08:47:52;101386.19;;;24.08;100.00
13734;BME280;43298;52.560;13.508;2023-08-17T08:50:20;101388.28;;;24.24;100.00
13734;BME280;43298;52.560;13.508;2023-08-17T08:53:01;101396.91;;;24.16;100.00
13734;BME280;43298;52.560;13.508;2023-08-17T08:55:37;101394.56;;;24.32;100.00
13734;BME280;43298;52.560;13.508;2023-08-17T08:58:04;101395.56;;;24.31;100.00
13734;BME280;43298;52.560;13.508;2023-08-17T09:00:32;101386.22;;;24.27;100.00
13734;BME280;43298;52.560;13.508;2023-08-17T09:03:00;101383.22;;;24.02;100.00
13734;BME280;43298;52.560;13.508;2023-08-17T09:05:27;101368.72;;;23.66;100.00
13734;BME280;43298;52.560;13.508;2023-08-17T09:07:53;101370.97;;;23.50;100.00
13734;BME280;43298;52.560;13.508;2023-08-17T09:10:20;101364.41;;;23.65;100.00
13734;BME280;43298;52.560;13.508;2023-08-17T09:12:47;101359.41;;;23.62;100.00
13734;BME280;43298;52.560;13.508;2023-08-17T09:15:16;101350.53;;;23.22;100.00
13734;BME280;43298;52.560;13.508;2023-08-17T09:17:43;101346.75;;;23.36;100.00
13734;BME280;43298;52.560;13.508;2023-08-17T09:20:10;101339.72;;;23.25;100.00
13734;BME280;43298;52.560;13.508;2023-08-17T09:22:43;101332.03;;;23.01;100.00
13734;BME280;43298;52.560;13.508;2023-08-17T09:25:10;101331.59;;;22.76;100.00
13734;BME280;43298;52.560;13.508;2023-08-17T09:27:38;101331.88;;;22.62;100.00
13734;BME280;43298;52.560;13.508;2023-08-17T09:30:09;101328.44;;;22.50;100.00
13734;BME280;43298;52.560;13.508;2023-08-17T09:32:36;101332.50;;;22.54;100.00
13734;BME280;43298;52.560;13.508;2023-08-17T09:35:06;101331.59;;;22.65;100.00
13734;BME280;43298;52.560;13.508;2023-08-17T09:37:33;101328.22;;;22.94;100.00
13734;BME280;43298;52.560;13.508;2023-08-17T09:39:59;101336.13;;;23.15;100.00
13734;BME280;43298;52.560;13.508;2023-08-17T09:42:26;101343.63;;;23.81;100.00
13734;BME280;43298;52.560;13.508;2023-08-17T09:44:53;101345.97;;;24.14;100.00
13734;BME280;43298;52.560;13.508;2023-08-17T09:47:20;101348.53;;;24.44;100.00
13734;BME280;43298;52.560;13.508;2023-08-17T09:49:55;101349.97;;;24.67;100.00
13734;BME280;43298;52.560;13.508;2023-08-17T09:52:23;101354.50;;;24.46;100.00
13734;BME280;43298;52.560;13.508;2023-08-17T09:54:50;101359.41;;;24.41;100.00
13734;BME280;43298;52.560;13.508;2023-08-17T09:57:17;101345.66;;;24.85;100.00
13734;BME280;43298;52.560;13.508;2023-08-17T09:59:46;101345.66;;;25.04;100.00
13734;BME280;43298;52.560;13.508;2023-08-17T10:02:21;101350.78;;;24.96;100.00
13734;BME280;43298;52.560;13.508;2023-08-17T10:04:53;101348.81;;;24.60;100.00
13734;BME280;43298;52.560;13.508;2023-08-17T10:07:26;101351.09;;;24.84;100.00
13734;BME280;43298;52.560;13.508;2023-08-17T10:10:05;101354.97;;;25.08;100.00
13734;BME280;43298;52.560;13.508;2023-08-17T10:12:37;101350.78;;;24.96;100.00
13734;BME280;43298;52.560;13.508;2023-08-17T10:15:10;101338.69;;;24.84;100.00
13734;BME280;43298;52.560;13.508;2023-08-17T10:18:11;101341.16;;;24.57;100.00
13734;BME280;43298;52.560;13.508;2023-08-17T10:20:42;101338.69;;;24.84;100.00
13734;BME280;43298;52.560;13.508;2023-08-17T10:23:16;101343.44;;;24.81;100.00
13734;BME280;43298;52.560;13.508;2023-08-17T10:25:44;101338.09;;;24.62;100.00
13734;BME280;43298;52.560;13.508;2023-08-17T10:28:10;101336.50;;;24.02;100.00
13734;BME280;43298;52.560;13.508;2023-08-17T10:30:37;101336.09;;;24.16;100.00
13734;BME280;43298;52.560;13.508;2023-08-17T10:33:05;101341.69;;;23.83;100.00
13734;BME280;43298;52.560;13.508;2023-08-17T10:35:33;101335.53;;;23.73;100.00
13734;BME280;43298;52.560;13.508;2023-08-17T10:37:59;101337.16;;;23.65;100.00
13734;BME280;43298;52.560;13.508;2023-08-17T10:40:27;101344.44;;;23.72;100.00
13734;BME280;43298;52.560;13.508;2023-08-17T10:42:55;101341.59;;;23.64;100.00
13734;BME280;43298;52.560;13.508;2023-08-17T10:45:32;101343.28;;;23.95;100.00
13734;BME280;43298;52.560;13.508;2023-08-17T10:50:39;101333.38;;;24.94;100.00
13734;BME280;43298;52.560;13.508;2023-08-17T10:53:10;101331.25;;;26.09;100.00
13734;BME280;43298;52.560;13.508;2023-08-17T10:55:38;101336.91;;;26.41;100.00
13734;BME280;43298;52.560;13.508;2023-08-17T10:58:06;101335.06;;;26.24;100.00
13734;BME280;43298;52.560;13.508;2023-08-17T11:00:36;101333.59;;;26.12;100.00
13734;BME280;43298;52.560;13.508;2023-08-17T11:03:10;101330.59;;;26.24;100.00
13734;BME280;43298;52.560;13.508;2023-08-17T11:05:50;101348.69;;;25.74;100.00
13734;BME280;43298;52.560;13.508;2023-08-17T11:08:37;101347.28;;;26.34;100.00
13734;BME280;43298;52.560;13.508;2023-08-17T11:11:12;101345.81;;;26.84;100.00
13734;BME280;43298;52.560;13.508;2023-08-17T11:13:41;101343.22;;;27.35;100.00
13734;BME280;43298;52.560;13.508;2023-08-17T11:16:12;101343.25;;;27.00;100.00
13734;BME280;43298;52.560;13.508;2023-08-17T11:18:38;101339.81;;;26.65;100.00
13734;BME280;43298;52.560;13.508;2023-08-17T11:21:06;101338.34;;;27.05;100.00
13734;BME280;43298;52.560;13.508;2023-08-17T11:23:34;101337.00;;;27.27;100.00
13734;BME280;43298;52.560;13.508;2023-08-17T11:26:01;101338.59;;;27.20;100.00
13734;BME280;43298;52.560;13.508;2023-08-17T11:28:29;101340.22;;;27.64;100.00
13734;BME280;43298;52.560;13.508;2023-08-17T11:31:07;101335.63;;;28.15;100.00
13734;BME280;43298;52.560;13.508;2023-08-17T11:33:35;101348.47;;;27.27;100.00
13734;BME280;43298;52.560;13.508;2023-08-17T11:36:04;101337.41;;;27.14;100.00
13734;BME280;43298;52.560;13.508;2023-08-17T11:38:38;101341.03;;;27.31;100.00
13734;BME280;43298;52.560;13.508;2023-08-17T11:41:05;101337.44;;;27.40;100.00
13734;BME280;43298;52.560;13.508;2023-08-17T11:43:33;101330.13;;;26.99;100.00
13734;BME280;43298;52.560;13.508;2023-08-17T11:46:01;101331.47;;;26.60;100.00
13734;BME280;43298;52.560;13.508;2023-08-17T11:48:27;101330.66;;;26.50;100.00
13734;BME280;43298;52.560;13.508;2023-08-17T11:50:54;101336.34;;;26.37;100.00
13734;BME280;43298;52.560;13.508;2023-08-17T11:53:24;101334.91;;;26.43;100.00
13734;BME280;43298;52.560;13.508;2023-08-17T11:55:56;101334.81;;;26.62;100.00
13734;BME280;43298;52.560;13.508;2023-08-17T11:58:40;101333.69;;;26.37;100.00
13734;BME280;43298;52.560;13.508;2023-08-17T12:01:10;101331.97;;;26.28;100.00
13734;BME280;43298;52.560;13.508;2023-08-17T12:03:37;101327.88;;;26.34;100.00
13734;BME280;43298;52.560;13.508;2023-08-17T12:06:04;101332.31;;;26.16;100.00
13734;BME280;43298;52.560;13.508;2023-08-17T12:08:30;101326.16;;;25.98;100.00
13734;BME280;43298;52.560;13.508;2023-08-17T12:10:56;101323.97;;;25.83;100.00
13734;BME280;43298;52.560;13.508;2023-08-17T12:13:33;101324.53;;;25.77;100.00
13734;BME280;43298;52.560;13.508;2023-08-17T12:15:59;101312.19;;;25.95;100.00
13734;BME280;43298;52.560;13.508;2023-08-17T12:18:25;101308.44;;;25.88;100.00
13734;BME280;43298;52.560;13.508;2023-08-17T12:20:55;101311.69;;;25.82;100.00
13734;BME280;43298;52.560;13.508;2023-08-17T12:23:21;101305.16;;;26.04;100.00
13734;BME280;43298;52.560;13.508;2023-08-17T12:25:55;101307.47;;;26.52;100.00
13734;BME280;43298;52.560;13.508;2023-08-17T12:28:25;101309.22;;;26.43;100.00
13734;BME280;43298;52.560;13.508;2023-08-17T12:31:01;101298.06;;;26.05;100.00
13734;BME280;43298;52.560;13.508;2023-08-17T12:33:28;101302.19;;;26.52;100.00
13734;BME280;43298;52.560;13.508;2023-08-17T12:35:54;101301.94;;;26.80;100.00
13734;BME280;43298;52.560;13.508;2023-08-17T12:38:21;101306.06;;;27.18;100.00
13734;BME280;43298;52.560;13.508;2023-08-17T12:40:47;101304.59;;;27.49;100.00